ADDS METAR Data INFO
IDs: Format: Raw Decoded Include TAF

Data at: 2345 UTC 15 Dec 2017

KSOA 152335Z AUTO 00000KT 10SM CLR 11/M06 A3025 RMK AO2
KSOA 152315Z AUTO 00000KT 10SM CLR 12/M06 A3025 RMK AO2
KSOA 152255Z AUTO 00000KT 10SM CLR 13/M07 A3025 RMK AO2
KSOA 152235Z AUTO 00000KT 10SM CLR 14/M07 A3027 RMK AO2
KSOA 152215Z AUTO 00000KT 10SM CLR 13/M07 A3027 RMK AO2
KSOA 152155Z AUTO 15005KT 10SM CLR 14/M06 A3028 RMK AO2
KSOA 152135Z AUTO 00000KT 10SM CLR 14/M06 A3028 RMK AO2
KSOA 152115Z AUTO 00000KT 10SM CLR 13/M06 A3027 RMK AO2
KSOA 152055Z AUTO 00000KT 10SM CLR 13/M06 A3028 RMK AO2
KSOA 152035Z AUTO 00000KT 10SM CLR 13/M06 A3028 RMK AO2
KSOA 152015Z AUTO 00000KT 10SM CLR 13/M06 A3028 RMK AO2
KSOA 151955Z AUTO 02006KT 10SM CLR 13/M06 A3028 RMK AO2
KSOA 151935Z AUTO 02006KT 10SM CLR 13/M05 A3030 RMK AO2
KSOA 151915Z AUTO 00000KT 10SM CLR 12/M06 A3031 RMK AO2
KSOA 151855Z AUTO 02005KT 10SM CLR 12/M05 A3033 RMK AO2
KSOA 151835Z AUTO 00000KT 10SM CLR 11/M05 A3034 RMK AO2
KSOA 151815Z AUTO 05005G10KT 10SM CLR 11/M05 A3036 RMK AO2
KSOA 151755Z AUTO 05006KT 10SM CLR 11/M05 A3038 RMK AO2
KSOA 151735Z AUTO 03008KT 10SM CLR 10/M05 A3039 RMK AO2
KSOA 151715Z AUTO 02008KT 10SM CLR 10/M04 A3040 RMK AO2
KSOA 151655Z AUTO 04009KT 10SM CLR 09/M04 A3040 RMK AO2
KSOA 151635Z AUTO 02010KT 10SM CLR 09/M04 A3041 RMK AO2
KSOA 151615Z AUTO 04011KT 10SM CLR 08/M04 A3040 RMK AO2
KSOA 151555Z AUTO 03009KT 10SM CLR 08/M03 A3040 RMK AO2
KSOA 151535Z AUTO 01009KT 10SM CLR 07/M02 A3039 RMK AO2
KSOA 151515Z AUTO 02006KT 10SM CLR 05/M02 A3039 RMK AO2
KSOA 151455Z AUTO 00000KT 10SM CLR 02/M02 A3037 RMK AO2
KSOA 151435Z AUTO 00000KT 10SM CLR 01/M02 A3038 RMK AO2
KSOA 151415Z AUTO 00000KT 10SM CLR 00/M03 A3039 RMK AO2
KSOA 151355Z AUTO 00000KT 10SM CLR 00/M03 A3038 RMK AO2
KSOA 151335Z AUTO 00000KT 10SM CLR 00/M03 A3036 RMK AO2
KSOA 151315Z AUTO 00000KT 10SM CLR 00/M03 A3036 RMK AO2
KSOA 151255Z AUTO 00000KT 10SM CLR 01/M03 A3035 RMK AO2
KSOA 151235Z AUTO 00000KT 10SM CLR 01/M03 A3036 RMK AO2
KSOA 151215Z AUTO 00000KT 10SM CLR 01/M03 A3035 RMK AO2
KSOA 151155Z AUTO 00000KT 10SM CLR 01/M03 A3035 RMK AO2
KSOA 151135Z AUTO 00000KT 10SM CLR 02/M03 A3034 RMK AO2
KSOA 151115Z AUTO 00000KT 10SM CLR 02/M02 A3035 RMK AO2
KSOA 151055Z AUTO 00000KT 10SM CLR 02/M02 A3035 RMK AO2
KSOA 151035Z AUTO 00000KT 10SM SCT110 03/M02 A3035 RMK AO2
KSOA 151015Z AUTO 00000KT 10SM BKN100 03/M02 A3034 RMK AO2
KSOA 150955Z AUTO 00000KT 10SM BKN095 BKN110 04/M03 A3034 RMK AO2
KSOA 150935Z AUTO 00000KT 10SM CLR 04/M03 A3033 RMK AO2
KSOA 150915Z AUTO 00000KT 10SM CLR 04/M03 A3032 RMK AO2
KSOA 150855Z AUTO 00000KT 10SM FEW120 04/M03 A3033 RMK AO2
KSOA 150835Z AUTO 00000KT 10SM FEW120 05/M03 A3032 RMK AO2
KSOA 150815Z AUTO 00000KT 10SM CLR 05/M03 A3032 RMK AO2
KSOA 150755Z AUTO 00000KT 10SM CLR 05/M03 A3031 RMK AO2
KSOA 150735Z AUTO 36004KT 10SM CLR 06/M03 A3029 RMK AO2
KSOA 150715Z AUTO 01005KT 10SM SCT120 06/M03 A3029 RMK AO2
KSOA 150655Z AUTO 01006G13KT 10SM BKN120 07/M03 A3028 RMK AO2
KSOA 150635Z AUTO 02008G13KT 10SM BKN120 07/M03 A3028 RMK AO2
KSOA 150615Z AUTO 03010KT 10SM BKN120 07/M03 A3028 RMK AO2
KSOA 150555Z AUTO 02010KT 10SM SCT110 08/M03 A3027 RMK AO2
KSOA 150535Z AUTO 02013KT 10SM SCT100 08/M03 A3026 RMK AO2
KSOA 150515Z AUTO 02009KT 10SM FEW100 08/M03 A3026 RMK AO2
KSOA 150455Z AUTO 02010KT 10SM FEW100 08/M03 A3025 RMK AO2
KSOA 150430Z AUTO 01008KT 10SM FEW100 08/M03 A3025 RMK AO2
KSOA 150415Z AUTO 01010KT 10SM FEW100 08/M03 A3024 RMK AO2
KSOA 150355Z AUTO 01008KT 10SM BKN100 BKN120 08/M03 A3024 RMK AO2
KSOA 150335Z AUTO 02009KT 10SM BKN090 BKN110 08/M03 A3023 RMK AO2
KSOA 150315Z AUTO 01011KT 10SM FEW090 09/M03 A3022 RMK AO2
KSOA 150255Z AUTO 01010KT 10SM FEW090 09/M03 A3021 RMK AO2
KSOA 150235Z AUTO 01010KT CLR 09/M03 A3020 RMK AO2
KSOA 150215Z AUTO 02011KT 10SM CLR 09/M03 A3018 RMK AO2
KSOA 150155Z AUTO 02012KT 10SM CLR 10/M03 A3017 RMK AO2
KSOA 150135Z AUTO 02010KT 10SM CLR 10/M03 A3017 RMK AO2
KSOA 150115Z AUTO 02007KT 10SM CLR 10/M03 A3016 RMK AO2
KSOA 150055Z AUTO 02008KT 10SM CLR 10/M03 A3013 RMK AO2
KSOA 150035Z AUTO 02006KT 10SM CLR 10/M03 A3013 RMK AO2
KSOA 150015Z AUTO 02007KT 10SM CLR 11/M03 A3012 RMK AO2
KSOA 142355Z AUTO 02006KT 10SM CLR 12/M03 A3010 RMK AO2
KSOA 142335Z AUTO 02008KT 10SM CLR 13/M03 A3009 RMK AO2
KSOA 142315Z AUTO 02007G12KT 10SM CLR 14/M04 A3010 RMK AO2
KSOA 142255Z AUTO 03010KT 10SM CLR 14/M04 A3008 RMK AO2
KSOA 142235Z AUTO 03008KT 10SM CLR 14/M04 A3008 RMK AO2
KSOA 142215Z AUTO 03009KT 10SM CLR 15/M04 A3007 RMK AO2
KSOA 142155Z AUTO 03010KT 10SM CLR 15/M04 A3007 RMK AO2
KSOA 142135Z AUTO 05009KT 10SM CLR 16/M04 A3007 RMK AO2
KSOA 142115Z AUTO 04013KT 10SM CLR 16/M05 A3005 RMK AO2
KSOA 142055Z AUTO 04011G16KT 10SM CLR 16/M05 A3005 RMK AO2
KSOA 142035Z AUTO 04011G16KT 10SM CLR 16/M04 A3005 RMK AO2
KSOA 142015Z AUTO 03012KT 10SM CLR 15/M04 A3005 RMK AO2
KSOA 141955Z AUTO 06011KT 10SM CLR 15/M04 A3006 RMK AO2
KSOA 141935Z AUTO 05006G13KT 10SM CLR 15/M04 A3006 RMK AO2
KSOA 141915Z AUTO 06009G16KT CLR 14/M04 A3007 RMK AO2
KSOA 141855Z AUTO 04009G15KT 10SM CLR 14/M04 A3006 RMK AO2
KSOA 141835Z AUTO 05014KT 10SM CLR 14/M03 A3007 RMK AO2
KSOA 141815Z AUTO 05011G17KT 10SM CLR 14/M02 A3006 RMK AO2
KSOA 141755Z AUTO 05012KT 10SM CLR 14/M03 A3006 RMK AO2
KSOA 141735Z AUTO 03011KT 10SM CLR 14/M02 A3007 RMK AO2
KSOA 141715Z AUTO 05009G15KT 10SM CLR 13/M01 A3008 RMK AO2
KSOA 141655Z AUTO 04012KT 10SM CLR 13/M00 A3007 RMK AO2
KSOA 141635Z AUTO 03009KT 10SM CLR 12/02 A3008 RMK AO2
KSOA 141615Z AUTO 00000KT 10SM CLR 09/04 A3008 RMK AO2
KSOA 141555Z AUTO 00000KT 10SM CLR 07/03 A3008 RMK AO2
KSOA 141535Z AUTO 00000KT 10SM CLR 05/02 A3007 RMK AO2
KSOA 141515Z AUTO 00000KT 10SM CLR 02/01 A3007 RMK AO2
KSOA 141455Z AUTO 00000KT 10SM CLR 01/M00 A3006 RMK AO2
KSOA 141435Z AUTO 00000KT 10SM CLR M00/M01 A3005 RMK AO2
KSOA 141415Z AUTO 00000KT 10SM CLR M00/M01 A3005 RMK AO2
KSOA 141355Z AUTO 00000KT 10SM CLR M00/M01 A3004 RMK AO2
KSOA 141335Z AUTO 00000KT 10SM CLR M00/M01 A3003 RMK AO2
KSOA 141315Z AUTO 00000KT 10SM CLR M01/M02 A3002 RMK AO2
KSOA 141255Z AUTO 00000KT 10SM CLR M00/M01 A3001 RMK AO2
KSOA 141235Z AUTO 00000KT 10SM CLR M00/M01 A3000 RMK AO2
KSOA 141215Z AUTO 00000KT 10SM CLR M00/M01 A2998 RMK AO2
KSOA 141155Z AUTO 02006KT 10SM CLR M01/M02 A2998 RMK AO2